Time;durP1;ratioP1;P1;durP2;ratioP2;P2;SDS_P1;SDS_P2;PMS_P1;PMS_P2;Temp;Humidity;BMP_temperature;BMP_pressure;BME280_temperature;BME280_humidity;BME280_pressure;Samples;Min_cycle;Max_cycle;Signal;HPM_P1;HPM_P2
2021/06/25 00:01:56;;;;;;;8.27;4.63;;;;;;;;;;5096012;28;20069;-66
2021/06/25 00:04:22;;;;;;;8.65;5.47;;;;;;;;;;5096432;28;20112;-66
2021/06/25 00:06:47;;;;;;;13.07;6.68;;;;;;;;;;5096610;28;20085;-66
2021/06/25 00:09:12;;;;;;;16.58;5.75;;;;;;;;;;5096322;28;20020;-66
2021/06/25 00:11:38;;;;;;;12.10;5.97;;;;;;;;;;5096487;28;20510;-66
2021/06/25 00:14:04;;;;;;;9.02;5.53;;;;;;;;;;5096354;28;20039;-65
2021/06/25 00:16:29;;;;;;;27.42;6.80;;;;;;;;;;5096145;28;20383;-66
2021/06/25 00:18:55;;;;;;;11.05;5.53;;;;;;;;;;5096301;28;20028;-66
2021/06/25 00:21:20;;;;;;;14.68;5.85;;;;;;;;;;5095995;28;20468;-65
2021/06/25 00:23:45;;;;;;;10.23;5.90;;;;;;;;;;5095801;28;20024;-65
2021/06/25 00:26:11;;;;;;;9.35;5.80;;;;;;;;;;5096323;28;20027;-66
2021/06/25 00:28:36;;;;;;;11.15;6.05;;;;;;;;;;5096302;28;20051;-66
2021/06/25 00:31:01;;;;;;;11.25;6.13;;;;;;;;;;5096054;28;20384;-66
2021/06/25 00:33:27;;;;;;;11.40;5.75;;;;;;;;;;5095648;28;20178;-66
2021/06/25 00:35:52;;;;;;;12.25;6.55;;;;;;;;;;5095989;28;20052;-65
2021/06/25 00:38:17;;;;;;;14.43;6.13;;;;;;;;;;5095920;28;20445;-66
2021/06/25 00:40:43;;;;;;;15.02;6.88;;;;;;;;;;5095993;28;20487;-66
2021/06/25 00:43:08;;;;;;;12.98;6.30;;;;;;;;;;5095790;28;20111;-66
2021/06/25 00:45:33;;;;;;;16.30;6.90;;;;;;;;;;5095550;28;20449;-66
2021/06/25 00:47:59;;;;;;;18.60;8.55;;;;;;;;;;5095656;28;20039;-66
2021/06/25 00:50:28;;;;;;;14.85;8.32;;;;;;;;;;5095374;28;20043;-66
2021/06/25 00:52:54;;;;;;;17.45;8.93;;;;;;;;;;5095672;28;20020;-66
2021/06/25 00:55:20;;;;;;;19.45;8.70;;;;;;;;;;5095644;28;20024;-66
2021/06/25 00:57:46;;;;;;;18.33;10.23;;;;;;;;;;5095381;28;20073;-64
2021/06/25 01:00:11;;;;;;;18.42;9.55;;;;;;;;;;5095519;28;20052;-67
2021/06/25 01:02:37;;;;;;;22.48;11.23;;;;;;;;;;5095492;28;20031;-68
2021/06/25 01:05:04;;;;;;;33.53;17.40;;;;;;;;;;5094937;28;20055;-68
2021/06/25 01:07:33;;;;;;;28.10;16.23;;;;;;;;;;5095183;28;20016;-68
2021/06/25 01:09:59;;;;;;;29.95;17.85;;;;;;;;;;5094794;28;20047;-68
2021/06/25 01:12:25;;;;;;;30.95;16.73;;;;;;;;;;5095628;28;20455;-68
2021/06/25 01:14:51;;;;;;;28.02;13.98;;;;;;;;;;5095185;28;20030;-68
2021/06/25 01:17:32;;;;;;;29.00;12.85;;;;;;;;;;5095286;28;20388;-68
2021/06/25 01:19:58;;;;;;;27.80;13.50;;;;;;;;;;5095085;28;20027;-68
2021/06/25 01:22:24;;;;;;;24.73;13.63;;;;;;;;;;5095182;28;20032;-68
2021/06/25 01:24:50;;;;;;;28.45;14.80;;;;;;;;;;5094680;28;20060;-68
2021/06/25 01:27:15;;;;;;;31.65;14.10;;;;;;;;;;5094857;28;20059;-68
2021/06/25 01:29:40;;;;;;;39.75;17.30;;;;;;;;;;5094204;28;20046;-68
2021/06/25 01:32:06;;;;;;;41.55;19.02;;;;;;;;;;5094878;28;20035;-68
2021/06/25 01:34:31;;;;;;;37.35;16.45;;;;;;;;;;5094784;28;20016;-67
2021/06/25 01:36:56;;;;;;;36.30;16.15;;;;;;;;;;5095012;28;20496;-68
2021/06/25 01:39:22;;;;;;;31.35;14.95;;;;;;;;;;5094462;28;20073;-67
2021/06/25 01:41:47;;;;;;;30.15;14.05;;;;;;;;;;5094756;28;20069;-68
2021/06/25 01:44:13;;;;;;;32.72;15.75;;;;;;;;;;5094113;28;20086;-68
2021/06/25 01:46:41;;;;;;;42.85;19.77;;;;;;;;;;5094503;28;20459;-68
2021/06/25 01:49:06;;;;;;;38.50;20.40;;;;;;;;;;5094473;28;20146;-68
2021/06/25 01:51:32;;;;;;;50.08;22.20;;;;;;;;;;5094455;28;20111;-68
2021/06/25 01:53:57;;;;;;;57.38;22.00;;;;;;;;;;5094424;28;20708;-68
2021/06/25 01:56:23;;;;;;;50.45;23.40;;;;;;;;;;5094421;28;20020;-67
2021/06/25 01:58:49;;;;;;;42.00;16.23;;;;;;;;;;5094162;28;20028;-68
2021/06/25 02:01:17;;;;;;;36.97;13.15;;;;;;;;;;5093739;28;20517;-67
2021/06/25 02:03:43;;;;;;;40.10;16.83;;;;;;;;;;5093834;28;20062;-68
2021/06/25 02:06:09;;;;;;;33.92;13.18;;;;;;;;;;5094426;28;20036;-68
2021/06/25 02:08:35;;;;;;;40.92;15.63;;;;;;;;;;5093906;28;20032;-68
2021/06/25 02:11:00;;;;;;;593.17;49.20;;;;;;;;;;5094204;28;20063;-68
2021/06/25 02:13:26;;;;;;;72.75;29.75;;;;;;;;;;5094041;28;20384;-67
2021/06/25 02:15:51;;;;;;;61.38;28.42;;;;;;;;;;5093822;28;20039;-67
2021/06/25 02:18:17;;;;;;;66.90;28.13;;;;;;;;;;5093983;28;20031;-68
2021/06/25 02:20:42;;;;;;;82.60;28.15;;;;;;;;;;5093003;28;20479;-68
2021/06/25 02:23:08;;;;;;;58.38;24.58;;;;;;;;;;5093850;28;20036;-68
2021/06/25 02:25:33;;;;;;;56.78;27.30;;;;;;;;;;5093929;28;20512;-68
2021/06/25 02:27:58;;;;;;;69.88;29.75;;;;;;;;;;5093852;28;20024;-68
2021/06/25 02:30:24;;;;;;;67.88;29.48;;;;;;;;;;5092741;28;20501;-68
2021/06/25 02:32:49;;;;;;;78.25;31.02;;;;;;;;;;5093730;28;20073;-68
2021/06/25 02:35:15;;;;;;;67.95;26.67;;;;;;;;;;5093396;28;20094;-67
2021/06/25 02:37:41;;;;;;;88.10;35.35;;;;;;;;;;5092483;28;20036;-68
2021/06/25 02:40:06;;;;;;;89.78;31.00;;;;;;;;;;5093629;28;20024;-68
2021/06/25 02:42:32;;;;;;;73.63;29.42;;;;;;;;;;5093219;28;20445;-68
2021/06/25 02:44:57;;;;;;;82.18;27.77;;;;;;;;;;5093336;28;20042;-68
2021/06/25 02:47:22;;;;;;;36.22;33.28;;;;;;;;;;5093407;28;20040;-65
2021/06/25 02:49:48;;;;;;;53.40;23.50;;;;;;;;;;5093131;28;20057;-66
2021/06/25 02:52:13;;;;;;;82.68;28.50;;;;;;;;;;5093531;28;20042;-66
2021/06/25 02:54:38;;;;;;;23.48;11.38;;;;;;;;;;5093099;28;20090;-66
2021/06/25 02:57:04;;;;;;;73.60;27.90;;;;;;;;;;5093353;28;20024;-65
2021/06/25 02:59:29;;;;;;;93.45;31.98;;;;;;;;;;5093127;28;20035;-66
2021/06/25 03:01:55;;;;;;;113.07;33.33;;;;;;;;;;5093367;28;20509;-65
2021/06/25 03:04:20;;;;;;;99.75;30.92;;;;;;;;;;5093248;28;20040;-66
2021/06/25 03:06:45;;;;;;;100.18;32.63;;;;;;;;;;5093523;28;20032;-65
2021/06/25 03:09:11;;;;;;;103.35;31.50;;;;;;;;;;5092653;28;20024;-66
2021/06/25 03:11:36;;;;;;;98.07;32.30;;;;;;;;;;5093308;28;20038;-66
2021/06/25 03:14:01;;;;;;;111.60;35.33;;;;;;;;;;5093185;28;20086;-66
2021/06/25 03:16:27;;;;;;;92.13;32.60;;;;;;;;;;5093294;28;20392;-66
2021/06/25 03:18:52;;;;;;;89.57;30.92;;;;;;;;;;5093410;28;20040;-66
2021/06/25 03:21:18;;;;;;;94.18;32.58;;;;;;;;;;5093385;28;20081;-66
2021/06/25 03:23:43;;;;;;;101.32;31.80;;;;;;;;;;5092989;28;20077;-66
2021/06/25 03:26:08;;;;;;;96.47;32.25;;;;;;;;;;5093203;28;20024;-65
2021/06/25 03:28:34;;;;;;;116.63;32.50;;;;;;;;;;5093006;28;20028;-66
2021/06/25 03:30:59;;;;;;;161.48;33.15;;;;;;;;;;5093096;28;20035;-66
2021/06/25 03:33:24;;;;;;;107.63;34.20;;;;;;;;;;5096097;28;20067;-65
2021/06/25 03:35:50;;;;;;;93.95;32.63;;;;;;;;;;5097181;28;20541;-65
2021/06/25 03:38:16;;;;;;;128.77;37.55;;;;;;;;;;5096806;28;20024;-66
2021/06/25 03:40:41;;;;;;;95.70;32.75;;;;;;;;;;5097022;28;20085;-66
2021/06/25 03:43:06;;;;;;;135.55;36.80;;;;;;;;;;5096791;28;20468;-66
2021/06/25 03:45:32;;;;;;;97.43;33.20;;;;;;;;;;5096800;28;20020;-66
2021/06/25 03:47:57;;;;;;;94.22;31.92;;;;;;;;;;5096969;28;20491;-65
2021/06/25 03:50:23;;;;;;;97.43;34.50;;;;;;;;;;5096733;28;20050;-66
2021/06/25 03:52:48;;;;;;;75.05;28.88;;;;;;;;;;5096509;28;20020;-66
2021/06/25 03:55:13;;;;;;;77.90;28.50;;;;;;;;;;5096822;28;20028;-66
2021/06/25 03:57:39;;;;;;;131.85;35.38;;;;;;;;;;5096215;28;20032;-66
2021/06/25 04:00:07;;;;;;;90.10;32.38;;;;;;;;;;5096399;28;20028;-66
2021/06/25 04:02:32;;;;;;;122.25;33.40;;;;;;;;;;5096233;28;20032;-66
2021/06/25 04:04:58;;;;;;;138.88;32.95;;;;;;;;;;5095929;28;20052;-65
2021/06/25 04:07:26;;;;;;;237.80;39.25;;;;;;;;;;5097045;28;20020;-66
2021/06/25 04:09:51;;;;;;;54.13;22.25;;;;;;;;;;5096256;28;20089;-66
2021/06/25 04:12:17;;;;;;;55.65;20.58;;;;;;;;;;5096006;28;20036;-66
2021/06/25 04:14:42;;;;;;;53.00;18.15;;;;;;;;;;5095929;28;20043;-66
2021/06/25 04:17:07;;;;;;;59.15;19.88;;;;;;;;;;5096782;28;20032;-66
2021/06/25 04:19:33;;;;;;;104.10;27.50;;;;;;;;;;5095788;28;20031;-65
2021/06/25 04:21:58;;;;;;;102.20;25.55;;;;;;;;;;5096369;28;20020;-66
2021/06/25 04:24:23;;;;;;;98.05;27.52;;;;;;;;;;5096283;28;20032;-66
2021/06/25 04:26:49;;;;;;;95.30;26.30;;;;;;;;;;5096199;28;20042;-66
2021/06/25 04:29:15;;;;;;;44.28;15.65;;;;;;;;;;5096025;28;20024;-66
2021/06/25 04:31:43;;;;;;;100.50;25.98;;;;;;;;;;5096112;28;20029;-66
2021/06/25 04:34:09;;;;;;;79.35;22.50;;;;;;;;;;5096042;28;20032;-66
2021/06/25 04:36:34;;;;;;;74.65;21.30;;;;;;;;;;5095913;28;20027;-65
2021/06/25 04:38:59;;;;;;;74.18;21.80;;;;;;;;;;5095930;28;20366;-66
2021/06/25 04:41:26;;;;;;;48.53;17.05;;;;;;;;;;5096034;28;20049;-66
2021/06/25 04:43:51;;;;;;;43.95;16.02;;;;;;;;;;5095018;28;20022;-66
2021/06/25 04:46:17;;;;;;;42.78;14.52;;;;;;;;;;5095400;28;20107;-65
2021/06/25 04:48:42;;;;;;;31.33;12.82;;;;;;;;;;5095035;28;20032;-66
2021/06/25 04:51:08;;;;;;;36.30;13.65;;;;;;;;;;5095372;28;20043;-66
2021/06/25 04:53:33;;;;;;;36.90;12.52;;;;;;;;;;5095499;28;20032;-66
2021/06/25 04:55:58;;;;;;;37.30;12.82;;;;;;;;;;5094823;28;20119;-66
2021/06/25 04:58:27;;;;;;;43.92;13.60;;;;;;;;;;5094828;28;20020;-66
2021/06/25 05:00:52;;;;;;;33.25;11.35;;;;;;;;;;5095197;28;20062;-68
2021/06/25 05:03:18;;;;;;;59.40;13.75;;;;;;;;;;5095551;28;20067;-68
2021/06/25 05:05:43;;;;;;;49.25;11.95;;;;;;;;;;5094194;28;20043;-68
2021/06/25 05:08:10;;;;;;;40.70;11.75;;;;;;;;;;5094826;28;20020;-67
2021/06/25 05:10:35;;;;;;;37.30;11.68;;;;;;;;;;5094964;28;20046;-67
2021/06/25 05:13:00;;;;;;;44.78;11.85;;;;;;;;;;5094435;28;20024;-68
2021/06/25 05:15:26;;;;;;;32.13;10.95;;;;;;;;;;5095410;28;20081;-68
2021/06/25 05:17:51;;;;;;;28.23;9.90;;;;;;;;;;5095180;28;20089;-68
2021/06/25 05:20:17;;;;;;;38.30;10.70;;;;;;;;;;5094258;28;20077;-68
2021/06/25 05:22:43;;;;;;;25.25;10.30;;;;;;;;;;5094657;28;20678;-68
2021/06/25 05:25:09;;;;;;;21.08;8.20;;;;;;;;;;5095058;28;20035;-68
2021/06/25 05:27:34;;;;;;;29.95;8.90;;;;;;;;;;5094613;28;20491;-67
2021/06/25 05:29:59;;;;;;;29.80;9.02;;;;;;;;;;5094418;28;20050;-68
2021/06/25 05:32:25;;;;;;;19.65;8.02;;;;;;;;;;5092814;28;20085;-68
2021/06/25 05:34:50;;;;;;;25.73;8.52;;;;;;;;;;5093725;28;20457;-68
2021/06/25 05:37:15;;;;;;;18.23;7.47;;;;;;;;;;5094641;28;20059;-66
2021/06/25 05:39:41;;;;;;;18.73;7.28;;;;;;;;;;5094412;28;20491;-66
2021/06/25 05:42:07;;;;;;;13.95;6.70;;;;;;;;;;5094540;28;20027;-66
2021/06/25 05:44:32;;;;;;;19.58;6.93;;;;;;;;;;5093989;28;20036;-65
2021/06/25 05:46:58;;;;;;;14.85;6.85;;;;;;;;;;5094300;28;20042;-66
2021/06/25 05:49:23;;;;;;;13.27;7.15;;;;;;;;;;5094400;28;20361;-66
2021/06/25 05:51:49;;;;;;;9.88;5.43;;;;;;;;;;5094123;28;20115;-66
2021/06/25 05:54:15;;;;;;;6.90;3.88;;;;;;;;;;5094222;28;20057;-66
2021/06/25 05:56:40;;;;;;;8.07;3.80;;;;;;;;;;5093395;28;20020;-66
2021/06/25 05:59:05;;;;;;;5.15;3.20;;;;;;;;;;5093704;28;20563;-65
2021/06/25 06:01:31;;;;;;;5.53;3.17;;;;;;;;;;5094198;28;20042;-66
2021/06/25 06:03:56;;;;;;;11.02;3.50;;;;;;;;;;5093715;28;20052;-66
2021/06/25 06:06:22;;;;;;;9.45;4.97;;;;;;;;;;5094072;28;20020;-66
2021/06/25 06:08:47;;;;;;;5.45;2.42;;;;;;;;;;5094179;28;20032;-66
2021/06/25 06:11:12;;;;;;;3.45;2.10;;;;;;;;;;5091937;28;20035;-66
2021/06/25 06:13:37;;;;;;;3.78;3.63;;;;;;;;;;5093757;28;20188;-66
2021/06/25 06:16:03;;;;;;;0.30;0.30;;;;;;;;;;5094010;28;20039;-67
2021/06/25 06:18:33;;;;;;;0.20;0.20;;;;;;;;;;5094111;28;20020;-66
2021/06/25 06:20:58;;;;;;;0.50;0.50;;;;;;;;;;5093295;28;20035;-66
2021/06/25 06:31:39;;;;;;;1.20;0.80;;;;;;;;;;5093449;28;20031;-67
2021/06/25 06:34:11;;;;;;;2.15;0.98;;;;;;;;;;5093344;28;20459;-66
2021/06/25 06:39:08;;;;;;;1.50;1.02;;;;;;;;;;5093238;28;20058;-67
2021/06/25 06:41:33;;;;;;;2.00;1.02;;;;;;;;;;5092844;28;20380;-66
2021/06/25 06:43:59;;;;;;;2.65;1.13;;;;;;;;;;5093117;28;20016;-66
2021/06/25 06:46:24;;;;;;;1.75;1.02;;;;;;;;;;5093357;28;20042;-66
2021/06/25 06:48:50;;;;;;;2.97;1.10;;;;;;;;;;5093351;28;20024;-66
2021/06/25 06:51:16;;;;;;;2.67;1.10;;;;;;;;;;5093474;28;20039;-66
2021/06/25 06:53:44;;;;;;;1.98;1.50;;;;;;;;;;5092951;28;20028;-66
2021/06/25 06:56:10;;;;;;;2.83;1.40;;;;;;;;;;5093365;28;20016;-66
2021/06/25 06:58:36;;;;;;;1.98;1.38;;;;;;;;;;5093062;28;20421;-67
2021/06/25 07:01:01;;;;;;;92.35;5.85;;;;;;;;;;5093461;28;20028;-67
2021/06/25 07:03:27;;;;;;;2.35;1.10;;;;;;;;;;5093301;28;20464;-66
2021/06/25 07:05:52;;;;;;;1.23;0.73;;;;;;;;;;5093180;28;20025;-67
2021/06/25 07:08:17;;;;;;;203.45;63.78;;;;;;;;;;5093093;28;20443;-67
2021/06/25 07:10:43;;;;;;;1.48;0.90;;;;;;;;;;5092986;28;20028;-66
2021/06/25 07:13:08;;;;;;;1.23;0.90;;;;;;;;;;5093224;28;20024;-67
2021/06/25 07:15:33;;;;;;;3.55;0.98;;;;;;;;;;5092779;28;20032;-66
2021/06/25 07:17:59;;;;;;;6.35;0.80;;;;;;;;;;5093344;28;20012;-67
2021/06/25 07:20:24;;;;;;;3.80;1.13;;;;;;;;;;5093192;28;20369;-66
2021/06/25 07:22:49;;;;;;;2.05;0.82;;;;;;;;;;5092766;28;20082;-66
2021/06/25 07:25:15;;;;;;;0.98;0.80;;;;;;;;;;5093111;28;20031;-66
2021/06/25 07:27:41;;;;;;;4.68;1.10;;;;;;;;;;5093096;28;20024;-67
2021/06/25 07:30:07;;;;;;;3.35;0.90;;;;;;;;;;5093026;28;20040;-66
2021/06/25 07:32:33;;;;;;;2.20;1.30;;;;;;;;;;5093091;28;20028;-67
2021/06/25 07:34:58;;;;;;;3.33;1.10;;;;;;;;;;5087685;28;20023;-68
2021/06/25 07:37:23;;;;;;;3.95;1.10;;;;;;;;;;5088993;28;20381;-69
2021/06/25 07:39:49;;;;;;;2.47;1.30;;;;;;;;;;5087517;28;20375;-68
2021/06/25 07:42:14;;;;;;;3.50;1.38;;;;;;;;;;5090562;28;20020;-68
2021/06/25 07:44:39;;;;;;;442.85;54.70;;;;;;;;;;5090183;28;20038;-68
2021/06/25 07:47:05;;;;;;;3.38;1.25;;;;;;;;;;5071355;28;20449;-68
2021/06/25 07:49:30;;;;;;;5.03;1.23;;;;;;;;;;5070042;28;20423;-68
2021/06/25 07:51:55;;;;;;;5.47;1.92;;;;;;;;;;5070064;28;20075;-67
2021/06/25 07:54:21;;;;;;;6.70;1.65;;;;;;;;;;5070624;28;20093;-68
2021/06/25 07:56:46;;;;;;;3.00;1.73;;;;;;;;;;5070093;28;20365;-68
2021/06/25 07:59:11;;;;;;;3.60;1.35;;;;;;;;;;5069868;28;20037;-69
2021/06/25 08:01:37;;;;;;;1.85;1.20;;;;;;;;;;5069551;28;20031;-68
2021/06/25 08:04:02;;;;;;;5.53;1.33;;;;;;;;;;5069876;28;20049;-67
2021/06/25 08:06:28;;;;;;;3.80;1.50;;;;;;;;;;5070189;28;20081;-68
2021/06/25 08:08:54;;;;;;;3.13;1.77;;;;;;;;;;5069532;28;20031;-68
2021/06/25 08:11:19;;;;;;;7.45;1.63;;;;;;;;;;5073483;28;20040;-68
2021/06/25 08:13:44;;;;;;;3.50;1.40;;;;;;;;;;5089882;28;20032;-68
2021/06/25 08:16:10;;;;;;;2.85;1.45;;;;;;;;;;5089821;28;20520;-69
2021/06/25 08:18:35;;;;;;;7.75;1.80;;;;;;;;;;5090301;28;20046;-68
2021/06/25 08:21:00;;;;;;;5.95;2.05;;;;;;;;;;5093430;28;20477;-69
2021/06/25 08:23:26;;;;;;;3.42;1.42;;;;;;;;;;5093802;28;20020;-68
2021/06/25 08:25:51;;;;;;;4.15;1.27;;;;;;;;;;5092548;28;20030;-69
2021/06/25 08:28:16;;;;;;;4.78;1.30;;;;;;;;;;5093448;28;20040;-67
2021/06/25 08:30:42;;;;;;;5.32;1.48;;;;;;;;;;5093242;28;20040;-69
2021/06/25 08:33:07;;;;;;;3.13;1.42;;;;;;;;;;5093181;28;20038;-68
2021/06/25 08:35:32;;;;;;;2.53;1.40;;;;;;;;;;5093008;28;20024;-68
2021/06/25 08:37:58;;;;;;;3.22;1.70;;;;;;;;;;5093745;28;20024;-68
2021/06/25 08:40:24;;;;;;;4.65;1.67;;;;;;;;;;5092970;28;20020;-68
2021/06/25 08:42:50;;;;;;;6.20;1.67;;;;;;;;;;5093353;28;20032;-67
2021/06/25 08:45:16;;;;;;;3.72;1.50;;;;;;;;;;5093271;28;20019;-68
2021/06/25 08:47:42;;;;;;;2.80;1.65;;;;;;;;;;5091679;28;20024;-68
2021/06/25 08:50:09;;;;;;;3.10;1.27;;;;;;;;;;5091662;28;20397;-68
2021/06/25 08:52:34;;;;;;;2.85;1.70;;;;;;;;;;5092357;28;20480;-67
2021/06/25 08:54:59;;;;;;;7.93;2.00;;;;;;;;;;5092822;28;20020;-68
2021/06/25 08:57:24;;;;;;;3.95;1.90;;;;;;;;;;5089759;28;20064;-65
2021/06/25 08:59:51;;;;;;;4.70;1.77;;;;;;;;;;5086252;28;20024;-67
2021/06/25 09:02:17;;;;;;;5.30;2.38;;;;;;;;;;5089904;28;20019;-68
2021/06/25 09:04:45;;;;;;;5.05;1.73;;;;;;;;;;5089334;28;20082;-68
2021/06/25 09:07:12;;;;;;;5.22;1.98;;;;;;;;;;5087776;28;20019;-68
2021/06/25 09:09:45;;;;;;;6.38;1.75;;;;;;;;;;5089873;28;20063;-68
2021/06/25 09:12:12;;;;;;;5.68;1.88;;;;;;;;;;5091634;28;20089;-67
2021/06/25 09:14:56;;;;;;;5.68;2.00;;;;;;;;;;5091585;28;20024;-67
2021/06/25 09:17:21;;;;;;;5.72;1.80;;;;;;;;;;5091825;28;20036;-67
2021/06/25 09:19:46;;;;;;;5.65;2.03;;;;;;;;;;5091833;28;20035;-68
2021/06/25 09:22:12;;;;;;;6.60;2.30;;;;;;;;;;5091503;28;20472;-67
2021/06/25 09:24:37;;;;;;;5.82;1.90;;;;;;;;;;5092028;28;20089;-67
2021/06/25 09:27:03;;;;;;;8.63;1.92;;;;;;;;;;5091315;28;20055;-68
2021/06/25 09:29:34;;;;;;;5.30;1.95;;;;;;;;;;5091411;28;20039;-68
2021/06/25 09:32:00;;;;;;;8.43;2.22;;;;;;;;;;5091626;28;20032;-68
2021/06/25 09:34:42;;;;;;;5.93;1.75;;;;;;;;;;5091311;28;20035;-68
2021/06/25 09:37:13;;;;;;;8.93;2.45;;;;;;;;;;5070908;28;20035;-68
2021/06/25 09:39:42;;;;;;;6.03;2.22;;;;;;;;;;5083683;28;20502;-68
2021/06/25 09:42:18;;;;;;;5.78;1.77;;;;;;;;;;5092011;28;20039;-68
2021/06/25 09:45:02;;;;;;;5.22;2.22;;;;;;;;;;5092660;28;20023;-68
2021/06/25 09:47:33;;;;;;;5.15;2.00;;;;;;;;;;5091352;28;20426;-68
2021/06/25 09:50:05;;;;;;;4.13;2.08;;;;;;;;;;5091967;28;20115;-68
2021/06/25 09:52:50;;;;;;;6.53;2.20;;;;;;;;;;5086146;28;20036;-68
2021/06/25 09:55:16;;;;;;;3.42;1.70;;;;;;;;;;5071004;28;20043;-68
2021/06/25 10:03:35;;;;;;;3.90;1.98;;;;;;;;;;5090620;28;20042;-68
2021/06/25 10:06:04;;;;;;;3.92;1.50;;;;;;;;;;5089365;28;20028;-66
2021/06/25 10:08:29;;;;;;;5.95;1.83;;;;;;;;;;5091542;28;20036;-69
2021/06/25 10:10:54;;;;;;;3.78;1.40;;;;;;;;;;5090316;28;20438;-68
2021/06/25 10:13:20;;;;;;;8.73;2.10;;;;;;;;;;5091353;28;20023;-69
2021/06/25 10:15:45;;;;;;;3.42;1.73;;;;;;;;;;5090460;28;20412;-68
2021/06/25 10:18:10;;;;;;;5.90;1.60;;;;;;;;;;5090054;28;20444;-69
2021/06/25 10:20:36;;;;;;;3.92;1.80;;;;;;;;;;5090932;28;20026;-69
2021/06/25 10:23:02;;;;;;;4.90;1.70;;;;;;;;;;5090717;28;20111;-70
2021/06/25 10:25:28;;;;;;;7.35;1.90;;;;;;;;;;5090539;28;20554;-70
2021/06/25 10:27:55;;;;;;;13.48;1.80;;;;;;;;;;5088124;28;20380;-69
2021/06/25 10:30:21;;;;;;;783.90;447.70;;;;;;;;;;5090711;28;20036;-68
2021/06/25 10:32:47;;;;;;;5.10;2.20;;;;;;;;;;5089385;28;20481;-70
2021/06/25 10:35:13;;;;;;;844.33;393.55;;;;;;;;;;5090576;28;20095;-66
2021/06/25 10:37:39;;;;;;;680.50;162.77;;;;;;;;;;5090121;28;20124;-69
2021/06/25 10:40:21;;;;;;;265.08;159.80;;;;;;;;;;5086585;28;20019;-69
2021/06/25 10:42:46;;;;;;;6.97;1.80;;;;;;;;;;5087965;28;20041;-68
2021/06/25 10:45:11;;;;;;;5.40;1.77;;;;;;;;;;5090662;28;20431;-69
2021/06/25 10:47:50;;;;;;;3.53;1.40;;;;;;;;;;5089491;28;20476;-69
2021/06/25 10:50:19;;;;;;;3.80;1.10;;;;;;;;;;5090845;28;20072;-69
2021/06/25 10:53:14;;;;;;;4.85;1.10;;;;;;;;;;5089890;28;20028;-69
2021/06/25 10:55:46;;;;;;;4.18;1.30;;;;;;;;;;5080426;28;20089;-69
2021/06/25 10:58:18;;;;;;;3.28;1.30;;;;;;;;;;5089782;28;20040;-69
2021/06/25 11:00:45;;;;;;;3.03;1.30;;;;;;;;;;5088888;28;20032;-69
2021/06/25 11:03:29;;;;;;;5.30;1.30;;;;;;;;;;5089331;28;20122;-69
2021/06/25 11:05:54;;;;;;;2.95;1.27;;;;;;;;;;5088285;28;20397;-69
2021/06/25 11:08:20;;;;;;;3.50;1.10;;;;;;;;;;5089054;28;20036;-67
2021/06/25 11:10:49;;;;;;;3.47;1.10;;;;;;;;;;5088630;28;20143;-69
2021/06/25 11:13:16;;;;;;;2.70;1.40;;;;;;;;;;5089185;28;20079;-68
2021/06/25 11:15:42;;;;;;;3.72;1.20;;;;;;;;;;5087891;28;20366;-67
2021/06/25 11:18:18;;;;;;;4.80;1.15;;;;;;;;;;5088168;28;20690;-68
2021/06/25 11:20:51;;;;;;;2.85;1.27;;;;;;;;;;5089153;28;20043;-68
2021/06/25 11:23:20;;;;;;;3.28;1.08;;;;;;;;;;5089566;28;20036;-68
2021/06/25 11:25:51;;;;;;;5.57;1.20;;;;;;;;;;5089698;28;20123;-68
2021/06/25 11:28:22;;;;;;;3.53;1.10;;;;;;;;;;5089642;28;20035;-68
2021/06/25 11:30:50;;;;;;;3.92;1.10;;;;;;;;;;5089163;28;20483;-68
2021/06/25 11:33:29;;;;;;;3.95;1.20;;;;;;;;;;5089323;28;20370;-68
2021/06/25 11:35:55;;;;;;;3.88;1.15;;;;;;;;;;5089643;28;20050;-68
2021/06/25 11:38:39;;;;;;;2.25;1.02;;;;;;;;;;5089190;28;20111;-67
2021/06/25 11:41:11;;;;;;;5.97;1.25;;;;;;;;;;5089260;28;20028;-68
2021/06/25 11:43:36;;;;;;;3.97;1.30;;;;;;;;;;5089210;28;20036;-69
2021/06/25 11:46:03;;;;;;;6.28;1.60;;;;;;;;;;5089134;28;20024;-67
2021/06/25 11:48:32;;;;;;;3.78;1.33;;;;;;;;;;5089241;28;20077;-67
2021/06/25 11:50:58;;;;;;;5.53;1.30;;;;;;;;;;5090240;28;20047;-68
2021/06/25 11:53:24;;;;;;;3.67;1.55;;;;;;;;;;5089980;28;20023;-68
2021/06/25 11:55:53;;;;;;;3.15;1.10;;;;;;;;;;5094342;28;20427;-68
2021/06/25 11:58:19;;;;;;;3.13;0.90;;;;;;;;;;5094556;28;20028;-68
2021/06/25 12:00:45;;;;;;;3.20;0.90;;;;;;;;;;5093838;28;20460;-68
2021/06/25 12:03:10;;;;;;;2.30;0.88;;;;;;;;;;5093921;28;20107;-68
2021/06/25 12:05:39;;;;;;;2.00;0.80;;;;;;;;;;5093363;28;20048;-68
2021/06/25 12:08:15;;;;;;;5.32;1.00;;;;;;;;;;5093897;28;20024;-69
2021/06/25 12:10:53;;;;;;;2.53;0.80;;;;;;;;;;5093631;28;20495;-67
2021/06/25 12:13:18;;;;;;;3.67;0.90;;;;;;;;;;5093516;28;20472;-68
2021/06/25 12:15:44;;;;;;;2.90;0.85;;;;;;;;;;5085946;28;20032;-68
2021/06/25 12:18:17;;;;;;;1.50;0.70;;;;;;;;;;5073404;28;20036;-68
2021/06/25 12:20:42;;;;;;;3.50;1.05;;;;;;;;;;5072856;28;20024;-68
2021/06/25 12:23:07;;;;;;;2.45;0.80;;;;;;;;;;5072834;28;20041;-68
2021/06/25 12:25:43;;;;;;;4.55;0.85;;;;;;;;;;5073412;28;20067;-67
2021/06/25 12:28:12;;;;;;;1.73;0.75;;;;;;;;;;5076580;28;20388;-68
2021/06/25 12:30:40;;;;;;;3.05;0.80;;;;;;;;;;5093456;28;20036;-68
2021/06/25 12:33:07;;;;;;;0.77;0.60;;;;;;;;;;5093238;28;20020;-66
2021/06/25 12:35:52;;;;;;;1.35;0.68;;;;;;;;;;5093733;28;20032;-68
2021/06/25 12:38:18;;;;;;;4.93;0.80;;;;;;;;;;5092884;28;20048;-68
2021/06/25 12:41:01;;;;;;;1.77;0.60;;;;;;;;;;5093170;28;20036;-68
2021/06/25 12:43:29;;;;;;;2.90;0.80;;;;;;;;;;5093133;28;20085;-68
2021/06/25 12:45:58;;;;;;;0.70;0.50;;;;;;;;;;5092796;28;20489;-68
2021/06/25 12:48:28;;;;;;;1.90;0.95;;;;;;;;;;5088811;28;20032;-68
2021/06/25 12:50:59;;;;;;;3.00;0.68;;;;;;;;;;5091972;28;20497;-68
2021/06/25 12:53:31;;;;;;;3.50;1.00;;;;;;;;;;5092202;28;20020;-68
2021/06/25 12:55:58;;;;;;;2.08;0.80;;;;;;;;;;5091465;28;20036;-68
2021/06/25 12:58:24;;;;;;;3.47;0.80;;;;;;;;;;5091724;28;20060;-68
2021/06/25 13:00:54;;;;;;;1.48;0.60;;;;;;;;;;5092238;28;20066;-67
2021/06/25 13:03:20;;;;;;;6.88;0.95;;;;;;;;;;5092124;28;20544;-68
2021/06/25 13:05:45;;;;;;;5.93;1.05;;;;;;;;;;5090475;28;20020;-68
2021/06/25 13:08:23;;;;;;;1.50;0.68;;;;;;;;;;5091674;28;20085;-68
2021/06/25 13:10:49;;;;;;;2.72;0.70;;;;;;;;;;5091824;28;20036;-68
2021/06/25 13:13:15;;;;;;;3.47;0.77;;;;;;;;;;5090990;28;20488;-68
2021/06/25 13:15:45;;;;;;;2.65;0.70;;;;;;;;;;5091294;28;20032;-68
2021/06/25 13:18:10;;;;;;;3.38;0.98;;;;;;;;;;5091636;28;20028;-68
2021/06/25 13:20:55;;;;;;;2.00;0.70;;;;;;;;;;5091270;28;20032;-67
2021/06/25 13:23:21;;;;;;;2.53;0.90;;;;;;;;;;5091794;28;20032;-68
2021/06/25 13:25:49;;;;;;;2.42;0.85;;;;;;;;;;5091080;28;20035;-68
2021/06/25 13:28:15;;;;;;;0.60;0.45;;;;;;;;;;5091564;28;20036;-68
2021/06/25 13:30:41;;;;;;;1.08;0.68;;;;;;;;;;5091113;28;20039;-68
2021/06/25 13:33:12;;;;;;;1.92;0.50;;;;;;;;;;5091701;28;20028;-67
2021/06/25 13:35:40;;;;;;;1.35;0.50;;;;;;;;;;5090717;28;20027;-67
2021/06/25 13:38:16;;;;;;;1.60;0.70;;;;;;;;;;5091714;28;20024;-68
2021/06/25 13:40:50;;;;;;;2.00;0.80;;;;;;;;;;5090707;28;20024;-68
2021/06/25 13:43:16;;;;;;;1.67;0.80;;;;;;;;;;5091029;28;20043;-68
2021/06/25 13:45:42;;;;;;;0.65;0.65;;;;;;;;;;5090497;28;20020;-67
2021/06/25 13:48:15;;;;;;;3.00;0.90;;;;;;;;;;5091677;28;20043;-67
2021/06/25 13:50:45;;;;;;;152.68;138.90;;;;;;;;;;5091416;28;20036;-68
2021/06/25 13:53:10;;;;;;;1.52;0.90;;;;;;;;;;5091599;28;20027;-68
2021/06/25 13:55:36;;;;;;;1.52;0.90;;;;;;;;;;5090299;28;20059;-68
2021/06/25 13:58:02;;;;;;;1.48;0.93;;;;;;;;;;5090663;28;20483;-68
2021/06/25 14:00:38;;;;;;;4.13;0.90;;;;;;;;;;5090536;28;20012;-68
2021/06/25 14:03:19;;;;;;;2.60;1.00;;;;;;;;;;5091134;28;20039;-68
2021/06/25 14:05:58;;;;;;;1.33;0.70;;;;;;;;;;5090916;28;20136;-68
2021/06/25 14:08:24;;;;;;;2.60;0.98;;;;;;;;;;5090528;28;20437;-67
2021/06/25 14:10:54;;;;;;;3.13;0.70;;;;;;;;;;5090705;28;20032;-68
2021/06/25 14:13:34;;;;;;;2.83;1.00;;;;;;;;;;5088932;28;20051;-68
2021/06/25 14:15:59;;;;;;;79.55;73.53;;;;;;;;;;5090132;28;20040;-67
2021/06/25 14:18:27;;;;;;;2.63;1.00;;;;;;;;;;5090782;28;20024;-68
2021/06/25 14:20:52;;;;;;;3.63;1.00;;;;;;;;;;5091674;28;20061;-68
2021/06/25 14:23:17;;;;;;;2.53;0.82;;;;;;;;;;5091399;28;20032;-68
2021/06/25 14:25:44;;;;;;;2.30;0.85;;;;;;;;;;5091367;28;20453;-67
2021/06/25 14:28:09;;;;;;;1.38;0.70;;;;;;;;;;5090974;28;20035;-68
2021/06/25 14:30:34;;;;;;;3.22;0.90;;;;;;;;;;5091049;28;20123;-67
2021/06/25 14:32:59;;;;;;;1.23;0.65;;;;;;;;;;5091859;28;20031;-68
2021/06/25 14:35:25;;;;;;;2.45;0.70;;;;;;;;;;5090713;28;20503;-68
2021/06/25 14:37:50;;;;;;;2.17;0.88;;;;;;;;;;5091258;28;20024;-68
2021/06/25 14:40:16;;;;;;;1.70;0.80;;;;;;;;;;5090916;28;20039;-68
2021/06/25 14:42:41;;;;;;;1.90;0.70;;;;;;;;;;5091048;28;20019;-68
2021/06/25 14:45:07;;;;;;;3.38;1.00;;;;;;;;;;5091536;28;20035;-68
2021/06/25 14:47:33;;;;;;;3.65;0.90;;;;;;;;;;5089969;28;20028;-68